Lovell Field
KCHA : now visible

Airfield :











YOU CAN JOIN US ON...

 
LOGIN :

Register | Disclaimer

   EN    FR    IT 

 









Legend :    VFR   Marginal VFR   IFR   Intensive IFR   Very Intensive IFR
Visi :
Ceiling :
>= 8 km
>= 3000ft
5 to 8 km
1000 to 3000 ft
1500m to 5 km
500 to 1000 ft
800 to 1500m
200 to 500 ft
< 800m
< 200 ft
Symbols :   Thunderstorms  Fog  Heavy snow  Heavy precipitations  Wind > 20 kt







- Airport Elevation : 683 ft
- IATA code : CHA


KCHA - Lovell Field

CURRENT METAR :
  • 161853Z 02009KT 10SM OVC019 10/04 A2984 RMK AO2 SLP103 T01000044 $

EXPIRED METARs :
  • 161753Z 01011KT 10SM OVC017 09/05 A2985 RMK AO2 SLP107 T00940050 10094 20078 58001 $
  • 161653Z 03008KT 10SM OVC017 09/04 A2987 RMK AO2 SLP112 T00890044 $

TAF KCHA
Valid from the 16 at 18:00 until the 17 at 18:00 UTC


161733Z 1618/1718 03008KT P6SM OVC017
TEMPO 1623/1703 SCT018 BKN200
FM170600 11004KT 5SM BR VCSH SCT010 OVC017
FM170900 08003KT 3SM -SHRA OVC009
KZTL FIR / North America



MET'MAP, your aeronautical weather chart ! - Copyright ORBIFLY December 2007 - Disclaimer

ORBIFLY MET'MAP TEAM :

Programming & Development : Alexandra Zaïnal
Concept & Development : Baudouin d'Aumeries
Co-Development & Prog : Marc-Olivier Méhu
Technical & hardware support : Manuel Goepfert

Contact : metmap@orbifly.com




SOURCES & CREDITS :

   NOAA       Earth
Advisory